St. Johann, Austria
Current Conditions -  °F | °C
As of 5:20 PM on Thursday 18 Dec 2014 (Local Time) from LOWS Reporting Station
Broken Clouds Broken Clouds  
Wind Chill: 46°   Ceiling: 4500
Heat Index: 48°   Visibility: 6mi
Dew Point: 41°   Wind: 6mph
Humidity: 76%   Direction: 170°S
Pressure: 30.03"   Gusts: NA
Location:  47.52°N, 12.45°E
Report Text: LOWS 181520Z 17005KT 9999 FEW026 SCT034 BKN045 09/05 Q1017 WS ALL RWY NOSIG
Loading
Personal Weather Stations






























Interactive Weather Map New forecast layout! Learn more

10-Day Weather Forecast

Advertisements
Track Severe Weather on mobile